sensor_id;sensor_type;location;lat;lon;timestamp;temperature;humidity
25450;DHT22;13371;52.080;5.624;2023-07-31T00:01:10;18.00;99.90
25450;DHT22;13371;52.080;5.624;2023-07-31T00:03:36;17.90;99.90
25450;DHT22;13371;52.080;5.624;2023-07-31T00:06:01;17.80;99.90
25450;DHT22;13371;52.080;5.624;2023-07-31T00:08:27;17.90;99.90
25450;DHT22;13371;52.080;5.624;2023-07-31T00:10:53;18.10;99.90
25450;DHT22;13371;52.080;5.624;2023-07-31T00:13:18;18.00;99.90
25450;DHT22;13371;52.080;5.624;2023-07-31T00:15:44;18.20;99.90
25450;DHT22;13371;52.080;5.624;2023-07-31T00:18:09;18.30;99.90
25450;DHT22;13371;52.080;5.624;2023-07-31T00:20:35;18.30;99.90
25450;DHT22;13371;52.080;5.624;2023-07-31T00:23:00;18.50;99.90
25450;DHT22;13371;52.080;5.624;2023-07-31T00:25:26;18.50;99.90
25450;DHT22;13371;52.080;5.624;2023-07-31T00:27:51;18.40;99.90
25450;DHT22;13371;52.080;5.624;2023-07-31T00:30:17;18.50;99.90
25450;DHT22;13371;52.080;5.624;2023-07-31T00:32:43;18.60;99.90
25450;DHT22;13371;52.080;5.624;2023-07-31T00:35:08;18.50;99.90
25450;DHT22;13371;52.080;5.624;2023-07-31T00:37:34;18.50;99.90
25450;DHT22;13371;52.080;5.624;2023-07-31T00:39:59;18.50;99.90
25450;DHT22;13371;52.080;5.624;2023-07-31T00:42:25;18.40;99.90
25450;DHT22;13371;52.080;5.624;2023-07-31T00:44:51;18.50;99.90
25450;DHT22;13371;52.080;5.624;2023-07-31T00:47:16;18.60;99.90
25450;DHT22;13371;52.080;5.624;2023-07-31T00:49:42;18.50;99.90
25450;DHT22;13371;52.080;5.624;2023-07-31T00:52:09;18.50;99.90
25450;DHT22;13371;52.080;5.624;2023-07-31T00:54:35;18.40;99.90
25450;DHT22;13371;52.080;5.624;2023-07-31T00:57:01;18.30;99.90
25450;DHT22;13371;52.080;5.624;2023-07-31T00:59:27;18.50;99.90
25450;DHT22;13371;52.080;5.624;2023-07-31T01:01:53;18.40;99.90
25450;DHT22;13371;52.080;5.624;2023-07-31T01:04:19;18.30;99.90
25450;DHT22;13371;52.080;5.624;2023-07-31T01:06:53;18.40;99.90
25450;DHT22;13371;52.080;5.624;2023-07-31T01:12:01;18.60;99.90
25450;DHT22;13371;52.080;5.624;2023-07-31T01:14:27;18.60;99.90
25450;DHT22;13371;52.080;5.624;2023-07-31T01:16:52;18.60;99.90
25450;DHT22;13371;52.080;5.624;2023-07-31T01:19:22;18.60;99.90
25450;DHT22;13371;52.080;5.624;2023-07-31T01:27:47;18.50;99.90
25450;DHT22;13371;52.080;5.624;2023-07-31T01:30:17;18.80;99.90
25450;DHT22;13371;52.080;5.624;2023-07-31T01:32:48;18.80;99.90
25450;DHT22;13371;52.080;5.624;2023-07-31T01:35:15;18.80;99.90
25450;DHT22;13371;52.080;5.624;2023-07-31T01:37:40;18.70;99.90
25450;DHT22;13371;52.080;5.624;2023-07-31T01:40:07;18.70;99.90
25450;DHT22;13371;52.080;5.624;2023-07-31T01:42:33;18.60;99.90
25450;DHT22;13371;52.080;5.624;2023-07-31T01:44:58;18.50;99.90
25450;DHT22;13371;52.080;5.624;2023-07-31T01:47:24;18.50;99.90
25450;DHT22;13371;52.080;5.624;2023-07-31T01:49:50;18.40;99.90
25450;DHT22;13371;52.080;5.624;2023-07-31T01:52:15;18.50;99.90
25450;DHT22;13371;52.080;5.624;2023-07-31T01:54:41;18.60;99.90
25450;DHT22;13371;52.080;5.624;2023-07-31T01:57:06;18.70;99.90
25450;DHT22;13371;52.080;5.624;2023-07-31T01:59:32;18.80;99.90
25450;DHT22;13371;52.080;5.624;2023-07-31T02:01:57;18.80;99.90
25450;DHT22;13371;52.080;5.624;2023-07-31T02:04:23;18.90;99.90
25450;DHT22;13371;52.080;5.624;2023-07-31T02:06:49;19.00;99.90
25450;DHT22;13371;52.080;5.624;2023-07-31T02:09:14;18.80;99.90
25450;DHT22;13371;52.080;5.624;2023-07-31T02:11:40;18.80;99.90
25450;DHT22;13371;52.080;5.624;2023-07-31T02:14:05;18.80;99.90
25450;DHT22;13371;52.080;5.624;2023-07-31T02:16:31;18.80;99.90
25450;DHT22;13371;52.080;5.624;2023-07-31T02:18:56;18.80;99.90
25450;DHT22;13371;52.080;5.624;2023-07-31T02:21:22;18.50;99.90
25450;DHT22;13371;52.080;5.624;2023-07-31T02:23:47;18.30;99.90
25450;DHT22;13371;52.080;5.624;2023-07-31T02:26:13;18.40;99.90
25450;DHT22;13371;52.080;5.624;2023-07-31T02:28:39;18.60;99.90
25450;DHT22;13371;52.080;5.624;2023-07-31T02:31:04;18.80;99.90
25450;DHT22;13371;52.080;5.624;2023-07-31T02:33:30;18.90;99.90
25450;DHT22;13371;52.080;5.624;2023-07-31T02:35:55;18.80;99.90
25450;DHT22;13371;52.080;5.624;2023-07-31T02:38:21;18.90;99.90
25450;DHT22;13371;52.080;5.624;2023-07-31T02:40:46;18.90;99.90
25450;DHT22;13371;52.080;5.624;2023-07-31T02:43:13;19.00;99.90
25450;DHT22;13371;52.080;5.624;2023-07-31T02:45:39;18.90;99.90
25450;DHT22;13371;52.080;5.624;2023-07-31T02:48:04;19.00;99.90
25450;DHT22;13371;52.080;5.624;2023-07-31T02:50:30;19.30;99.90
25450;DHT22;13371;52.080;5.624;2023-07-31T02:52:57;19.40;99.90
25450;DHT22;13371;52.080;5.624;2023-07-31T02:55:23;19.20;99.90
25450;DHT22;13371;52.080;5.624;2023-07-31T02:57:48;19.20;99.90
25450;DHT22;13371;52.080;5.624;2023-07-31T03:00:14;19.20;99.90
25450;DHT22;13371;52.080;5.624;2023-07-31T03:02:39;19.10;99.90
25450;DHT22;13371;52.080;5.624;2023-07-31T03:05:05;18.90;99.90
25450;DHT22;13371;52.080;5.624;2023-07-31T03:07:30;18.80;99.90
25450;DHT22;13371;52.080;5.624;2023-07-31T03:09:56;18.70;99.90
25450;DHT22;13371;52.080;5.624;2023-07-31T03:12:22;19.00;99.90
25450;DHT22;13371;52.080;5.624;2023-07-31T03:14:47;19.10;99.90
25450;DHT22;13371;52.080;5.624;2023-07-31T03:17:13;18.90;99.90
25450;DHT22;13371;52.080;5.624;2023-07-31T03:19:39;18.90;99.90
25450;DHT22;13371;52.080;5.624;2023-07-31T03:22:05;19.00;99.90
25450;DHT22;13371;52.080;5.624;2023-07-31T03:24:30;18.90;99.90
25450;DHT22;13371;52.080;5.624;2023-07-31T03:26:56;18.90;99.90
25450;DHT22;13371;52.080;5.624;2023-07-31T03:29:22;19.00;99.90
25450;DHT22;13371;52.080;5.624;2023-07-31T03:31:47;19.20;99.90
25450;DHT22;13371;52.080;5.624;2023-07-31T03:34:13;19.10;99.90
25450;DHT22;13371;52.080;5.624;2023-07-31T03:36:38;19.10;99.90
25450;DHT22;13371;52.080;5.624;2023-07-31T03:39:04;19.10;99.90
25450;DHT22;13371;52.080;5.624;2023-07-31T03:41:30;19.30;99.90
25450;DHT22;13371;52.080;5.624;2023-07-31T03:43:55;19.20;99.90
25450;DHT22;13371;52.080;5.624;2023-07-31T03:46:26;19.10;99.90
25450;DHT22;13371;52.080;5.624;2023-07-31T03:48:52;19.00;99.90
25450;DHT22;13371;52.080;5.624;2023-07-31T03:51:17;19.10;99.90
25450;DHT22;13371;52.080;5.624;2023-07-31T03:53:44;18.70;99.90
25450;DHT22;13371;52.080;5.624;2023-07-31T03:56:10;18.60;99.90
25450;DHT22;13371;52.080;5.624;2023-07-31T03:58:35;18.60;99.90
25450;DHT22;13371;52.080;5.624;2023-07-31T04:01:02;18.90;99.90
25450;DHT22;13371;52.080;5.624;2023-07-31T04:03:28;18.90;99.90
25450;DHT22;13371;52.080;5.624;2023-07-31T04:05:55;18.70;99.90
25450;DHT22;13371;52.080;5.624;2023-07-31T04:08:24;18.80;99.90
25450;DHT22;13371;52.080;5.624;2023-07-31T04:10:49;18.80;99.90
25450;DHT22;13371;52.080;5.624;2023-07-31T04:13:15;18.90;99.90
25450;DHT22;13371;52.080;5.624;2023-07-31T04:15:41;18.90;99.90
25450;DHT22;13371;52.080;5.624;2023-07-31T04:18:07;19.00;99.90
25450;DHT22;13371;52.080;5.624;2023-07-31T04:20:32;19.00;99.90
25450;DHT22;13371;52.080;5.624;2023-07-31T04:22:58;19.10;99.90
25450;DHT22;13371;52.080;5.624;2023-07-31T04:25:23;18.80;99.90
25450;DHT22;13371;52.080;5.624;2023-07-31T04:27:49;18.50;99.90
25450;DHT22;13371;52.080;5.624;2023-07-31T04:30:15;18.70;99.90
25450;DHT22;13371;52.080;5.624;2023-07-31T04:32:40;18.70;99.90
25450;DHT22;13371;52.080;5.624;2023-07-31T04:35:06;18.70;99.90
25450;DHT22;13371;52.080;5.624;2023-07-31T04:37:32;18.70;99.90
25450;DHT22;13371;52.080;5.624;2023-07-31T04:39:57;18.80;99.90
25450;DHT22;13371;52.080;5.624;2023-07-31T04:42:23;18.80;99.90
25450;DHT22;13371;52.080;5.624;2023-07-31T04:44:48;18.50;99.90
25450;DHT22;13371;52.080;5.624;2023-07-31T04:47:14;18.80;99.90
25450;DHT22;13371;52.080;5.624;2023-07-31T04:49:40;18.70;99.90
25450;DHT22;13371;52.080;5.624;2023-07-31T04:52:05;18.60;99.90
25450;DHT22;13371;52.080;5.624;2023-07-31T04:54:31;18.60;99.90
25450;DHT22;13371;52.080;5.624;2023-07-31T04:56:57;18.50;99.90
25450;DHT22;13371;52.080;5.624;2023-07-31T04:59:22;18.60;99.90
25450;DHT22;13371;52.080;5.624;2023-07-31T05:01:48;18.70;99.90
25450;DHT22;13371;52.080;5.624;2023-07-31T05:04:14;18.60;99.90
25450;DHT22;13371;52.080;5.624;2023-07-31T05:06:40;18.70;99.90
25450;DHT22;13371;52.080;5.624;2023-07-31T05:09:06;18.70;99.90
25450;DHT22;13371;52.080;5.624;2023-07-31T05:11:32;18.60;99.90
25450;DHT22;13371;52.080;5.624;2023-07-31T05:13:57;18.60;99.90
25450;DHT22;13371;52.080;5.624;2023-07-31T05:16:24;18.50;99.90
25450;DHT22;13371;52.080;5.624;2023-07-31T05:18:49;18.40;99.90
25450;DHT22;13371;52.080;5.624;2023-07-31T05:21:15;18.50;99.90
25450;DHT22;13371;52.080;5.624;2023-07-31T05:23:41;18.30;99.90
25450;DHT22;13371;52.080;5.624;2023-07-31T05:26:07;18.50;99.90
25450;DHT22;13371;52.080;5.624;2023-07-31T05:28:35;18.50;99.90
25450;DHT22;13371;52.080;5.624;2023-07-31T05:31:04;18.40;99.90
25450;DHT22;13371;52.080;5.624;2023-07-31T05:33:30;18.40;99.90
25450;DHT22;13371;52.080;5.624;2023-07-31T05:35:56;18.10;99.90
25450;DHT22;13371;52.080;5.624;2023-07-31T05:38:22;18.00;99.90
25450;DHT22;13371;52.080;5.624;2023-07-31T05:40:48;18.00;99.90
25450;DHT22;13371;52.080;5.624;2023-07-31T05:43:13;18.10;99.90
25450;DHT22;13371;52.080;5.624;2023-07-31T05:45:41;18.10;99.90
25450;DHT22;13371;52.080;5.624;2023-07-31T05:48:07;18.20;99.90
25450;DHT22;13371;52.080;5.624;2023-07-31T05:50:32;18.00;99.90
25450;DHT22;13371;52.080;5.624;2023-07-31T05:52:58;18.00;99.90
25450;DHT22;13371;52.080;5.624;2023-07-31T05:55:24;18.10;99.90
25450;DHT22;13371;52.080;5.624;2023-07-31T05:57:52;18.10;99.90
25450;DHT22;13371;52.080;5.624;2023-07-31T06:00:18;18.30;99.90
25450;DHT22;13371;52.080;5.624;2023-07-31T06:02:43;18.40;99.90
25450;DHT22;13371;52.080;5.624;2023-07-31T06:05:09;18.40;99.90
25450;DHT22;13371;52.080;5.624;2023-07-31T06:07:35;18.00;99.90
25450;DHT22;13371;52.080;5.624;2023-07-31T06:10:01;18.10;99.90
25450;DHT22;13371;52.080;5.624;2023-07-31T06:12:28;18.30;99.90
25450;DHT22;13371;52.080;5.624;2023-07-31T06:14:54;18.10;99.90
25450;DHT22;13371;52.080;5.624;2023-07-31T06:17:19;18.10;99.90
25450;DHT22;13371;52.080;5.624;2023-07-31T06:19:45;18.20;99.90
25450;DHT22;13371;52.080;5.624;2023-07-31T06:22:11;18.20;99.90
25450;DHT22;13371;52.080;5.624;2023-07-31T06:24:36;18.20;99.90
25450;DHT22;13371;52.080;5.624;2023-07-31T06:27:02;18.30;99.90
25450;DHT22;13371;52.080;5.624;2023-07-31T06:29:29;18.20;99.90
25450;DHT22;13371;52.080;5.624;2023-07-31T06:31:55;18.20;99.90
25450;DHT22;13371;52.080;5.624;2023-07-31T06:34:21;18.00;99.90
25450;DHT22;13371;52.080;5.624;2023-07-31T06:36:46;18.20;99.90
25450;DHT22;13371;52.080;5.624;2023-07-31T06:39:12;18.10;99.90
25450;DHT22;13371;52.080;5.624;2023-07-31T06:41:38;18.20;99.90
25450;DHT22;13371;52.080;5.624;2023-07-31T06:44:03;18.40;99.90
25450;DHT22;13371;52.080;5.624;2023-07-31T06:46:29;18.40;99.90
25450;DHT22;13371;52.080;5.624;2023-07-31T06:48:55;18.40;99.90
25450;DHT22;13371;52.080;5.624;2023-07-31T06:51:20;18.50;99.90
25450;DHT22;13371;52.080;5.624;2023-07-31T06:53:46;18.50;99.90
25450;DHT22;13371;52.080;5.624;2023-07-31T06:56:12;18.50;99.90
25450;DHT22;13371;52.080;5.624;2023-07-31T06:58:38;18.40;99.90
25450;DHT22;13371;52.080;5.624;2023-07-31T07:01:03;18.30;99.90
25450;DHT22;13371;52.080;5.624;2023-07-31T07:03:29;18.60;99.90
25450;DHT22;13371;52.080;5.624;2023-07-31T07:05:55;18.50;99.90
25450;DHT22;13371;52.080;5.624;2023-07-31T07:08:20;18.50;99.90
25450;DHT22;13371;52.080;5.624;2023-07-31T07:10:46;18.40;99.90
25450;DHT22;13371;52.080;5.624;2023-07-31T07:13:12;18.40;99.90
25450;DHT22;13371;52.080;5.624;2023-07-31T07:15:38;18.60;99.90
25450;DHT22;13371;52.080;5.624;2023-07-31T07:18:04;18.70;99.90
25450;DHT22;13371;52.080;5.624;2023-07-31T07:20:30;18.80;99.90
25450;DHT22;13371;52.080;5.624;2023-07-31T07:22:56;18.80;99.90
25450;DHT22;13371;52.080;5.624;2023-07-31T07:25:21;18.90;99.90
25450;DHT22;13371;52.080;5.624;2023-07-31T07:27:47;18.90;99.90
25450;DHT22;13371;52.080;5.624;2023-07-31T07:30:12;18.90;99.90
25450;DHT22;13371;52.080;5.624;2023-07-31T07:32:39;19.00;99.90
25450;DHT22;13371;52.080;5.624;2023-07-31T07:35:06;18.80;99.90
25450;DHT22;13371;52.080;5.624;2023-07-31T07:37:32;18.70;99.90
25450;DHT22;13371;52.080;5.624;2023-07-31T07:39:57;18.80;99.90
25450;DHT22;13371;52.080;5.624;2023-07-31T07:42:23;18.70;99.90
25450;DHT22;13371;52.080;5.624;2023-07-31T07:44:49;18.60;99.90
25450;DHT22;13371;52.080;5.624;2023-07-31T07:47:14;18.80;99.90
25450;DHT22;13371;52.080;5.624;2023-07-31T07:49:40;18.80;99.90
25450;DHT22;13371;52.080;5.624;2023-07-31T07:52:06;18.80;99.90
25450;DHT22;13371;52.080;5.624;2023-07-31T07:54:31;18.70;99.90
25450;DHT22;13371;52.080;5.624;2023-07-31T07:56:57;18.70;99.90
25450;DHT22;13371;52.080;5.624;2023-07-31T07:59:23;18.80;99.90
25450;DHT22;13371;52.080;5.624;2023-07-31T08:01:49;18.70;99.90
25450;DHT22;13371;52.080;5.624;2023-07-31T08:04:14;18.60;99.90
25450;DHT22;13371;52.080;5.624;2023-07-31T08:06:40;18.70;99.90
25450;DHT22;13371;52.080;5.624;2023-07-31T08:09:05;18.70;99.90
25450;DHT22;13371;52.080;5.624;2023-07-31T08:11:34;18.90;99.90
25450;DHT22;13371;52.080;5.624;2023-07-31T08:14:00;18.90;99.90
25450;DHT22;13371;52.080;5.624;2023-07-31T08:16:26;19.00;99.90
25450;DHT22;13371;52.080;5.624;2023-07-31T08:18:52;18.90;99.90
25450;DHT22;13371;52.080;5.624;2023-07-31T08:21:17;19.10;99.90
25450;DHT22;13371;52.080;5.624;2023-07-31T08:23:43;19.20;99.90
25450;DHT22;13371;52.080;5.624;2023-07-31T08:26:15;19.10;99.90
25450;DHT22;13371;52.080;5.624;2023-07-31T08:28:40;19.00;99.90
25450;DHT22;13371;52.080;5.624;2023-07-31T08:31:06;18.90;99.90
25450;DHT22;13371;52.080;5.624;2023-07-31T08:33:31;19.10;99.90
25450;DHT22;13371;52.080;5.624;2023-07-31T08:35:57;18.90;99.90
25450;DHT22;13371;52.080;5.624;2023-07-31T08:38:23;19.10;99.90
25450;DHT22;13371;52.080;5.624;2023-07-31T08:40:50;18.90;99.90
25450;DHT22;13371;52.080;5.624;2023-07-31T08:43:16;19.00;99.90
25450;DHT22;13371;52.080;5.624;2023-07-31T08:45:42;19.10;99.90
25450;DHT22;13371;52.080;5.624;2023-07-31T08:48:08;19.00;99.90
25450;DHT22;13371;52.080;5.624;2023-07-31T08:50:34;19.00;99.90
25450;DHT22;13371;52.080;5.624;2023-07-31T08:52:59;19.10;99.90
25450;DHT22;13371;52.080;5.624;2023-07-31T08:55:26;19.20;99.90
25450;DHT22;13371;52.080;5.624;2023-07-31T08:57:52;19.10;99.90
25450;DHT22;13371;52.080;5.624;2023-07-31T09:00:20;19.30;99.90
25450;DHT22;13371;52.080;5.624;2023-07-31T09:03:09;19.30;99.90
25450;DHT22;13371;52.080;5.624;2023-07-31T09:05:39;19.30;99.90
25450;DHT22;13371;52.080;5.624;2023-07-31T09:08:07;19.40;99.90
25450;DHT22;13371;52.080;5.624;2023-07-31T09:10:34;19.30;99.90
25450;DHT22;13371;52.080;5.624;2023-07-31T09:13:00;19.50;99.90
25450;DHT22;13371;52.080;5.624;2023-07-31T09:15:27;19.40;99.90
25450;DHT22;13371;52.080;5.624;2023-07-31T09:18:01;19.50;99.90
25450;DHT22;13371;52.080;5.624;2023-07-31T09:20:27;19.40;99.90
25450;DHT22;13371;52.080;5.624;2023-07-31T09:22:53;19.40;99.90
25450;DHT22;13371;52.080;5.624;2023-07-31T09:27:57;19.40;99.90
25450;DHT22;13371;52.080;5.624;2023-07-31T09:30:23;19.30;99.90
25450;DHT22;13371;52.080;5.624;2023-07-31T09:32:50;19.50;99.90
25450;DHT22;13371;52.080;5.624;2023-07-31T09:35:27;19.60;99.90
25450;DHT22;13371;52.080;5.624;2023-07-31T09:37:59;19.30;99.90
25450;DHT22;13371;52.080;5.624;2023-07-31T09:40:36;19.30;99.90
25450;DHT22;13371;52.080;5.624;2023-07-31T09:43:03;19.20;99.90
25450;DHT22;13371;52.080;5.624;2023-07-31T09:45:35;19.20;99.90
25450;DHT22;13371;52.080;5.624;2023-07-31T09:48:02;19.20;99.90
25450;DHT22;13371;52.080;5.624;2023-07-31T09:50:29;19.10;99.90
25450;DHT22;13371;52.080;5.624;2023-07-31T09:52:55;19.20;99.90
25450;DHT22;13371;52.080;5.624;2023-07-31T09:55:20;19.20;99.90
25450;DHT22;13371;52.080;5.624;2023-07-31T09:57:48;19.30;99.90
25450;DHT22;13371;52.080;5.624;2023-07-31T10:00:18;19.30;99.90
25450;DHT22;13371;52.080;5.624;2023-07-31T10:02:47;19.50;99.90
25450;DHT22;13371;52.080;5.624;2023-07-31T10:05:16;19.60;99.90
25450;DHT22;13371;52.080;5.624;2023-07-31T10:07:45;19.60;99.90
25450;DHT22;13371;52.080;5.624;2023-07-31T10:10:14;19.60;99.90
25450;DHT22;13371;52.080;5.624;2023-07-31T10:12:40;19.70;99.90
25450;DHT22;13371;52.080;5.624;2023-07-31T10:15:08;19.70;99.90
25450;DHT22;13371;52.080;5.624;2023-07-31T10:17:35;19.80;99.90
25450;DHT22;13371;52.080;5.624;2023-07-31T10:20:03;19.80;99.90
25450;DHT22;13371;52.080;5.624;2023-07-31T10:22:31;19.60;99.90
25450;DHT22;13371;52.080;5.624;2023-07-31T10:24:58;19.60;99.90
25450;DHT22;13371;52.080;5.624;2023-07-31T10:27:24;19.70;99.90
25450;DHT22;13371;52.080;5.624;2023-07-31T10:29:51;19.80;99.90
25450;DHT22;13371;52.080;5.624;2023-07-31T10:32:17;19.90;99.90
25450;DHT22;13371;52.080;5.624;2023-07-31T10:34:44;19.90;99.90
25450;DHT22;13371;52.080;5.624;2023-07-31T10:37:27;20.00;99.90
25450;DHT22;13371;52.080;5.624;2023-07-31T10:42:35;19.90;99.90
25450;DHT22;13371;52.080;5.624;2023-07-31T10:45:10;19.90;99.90
25450;DHT22;13371;52.080;5.624;2023-07-31T10:47:45;20.00;99.90
25450;DHT22;13371;52.080;5.624;2023-07-31T10:50:22;19.90;99.90
25450;DHT22;13371;52.080;5.624;2023-07-31T10:52:54;20.10;99.90
25450;DHT22;13371;52.080;5.624;2023-07-31T10:55:41;20.10;99.90
25450;DHT22;13371;52.080;5.624;2023-07-31T10:58:11;20.20;99.90
25450;DHT22;13371;52.080;5.624;2023-07-31T11:00:41;20.50;99.90
25450;DHT22;13371;52.080;5.624;2023-07-31T11:03:09;20.60;99.90
25450;DHT22;13371;52.080;5.624;2023-07-31T11:05:42;20.50;99.90
25450;DHT22;13371;52.080;5.624;2023-07-31T11:08:22;20.50;99.90
25450;DHT22;13371;52.080;5.624;2023-07-31T11:13:28;20.50;99.90
25450;DHT22;13371;52.080;5.624;2023-07-31T11:15:54;20.50;99.90
25450;DHT22;13371;52.080;5.624;2023-07-31T11:18:20;20.40;99.90
25450;DHT22;13371;52.080;5.624;2023-07-31T11:20:46;20.50;99.90
25450;DHT22;13371;52.080;5.624;2023-07-31T11:23:12;20.40;99.90
25450;DHT22;13371;52.080;5.624;2023-07-31T11:25:39;20.50;99.90
25450;DHT22;13371;52.080;5.624;2023-07-31T11:28:15;20.20;99.90
25450;DHT22;13371;52.080;5.624;2023-07-31T11:30:42;20.20;99.90
25450;DHT22;13371;52.080;5.624;2023-07-31T11:33:09;20.40;99.90
25450;DHT22;13371;52.080;5.624;2023-07-31T11:35:43;20.30;99.90
25450;DHT22;13371;52.080;5.624;2023-07-31T11:38:27;20.30;99.90
25450;DHT22;13371;52.080;5.624;2023-07-31T11:40:54;20.10;99.90
25450;DHT22;13371;52.080;5.624;2023-07-31T11:43:21;20.00;99.90
25450;DHT22;13371;52.080;5.624;2023-07-31T11:45:48;20.20;99.90
25450;DHT22;13371;52.080;5.624;2023-07-31T11:50:46;20.20;99.90
25450;DHT22;13371;52.080;5.624;2023-07-31T11:53:13;20.10;99.90
25450;DHT22;13371;52.080;5.624;2023-07-31T11:55:39;20.20;99.90
25450;DHT22;13371;52.080;5.624;2023-07-31T11:58:05;20.40;99.90
25450;DHT22;13371;52.080;5.624;2023-07-31T12:00:31;20.30;99.90
25450;DHT22;13371;52.080;5.624;2023-07-31T12:02:56;20.30;99.90
25450;DHT22;13371;52.080;5.624;2023-07-31T12:05:22;20.50;99.90
25450;DHT22;13371;52.080;5.624;2023-07-31T12:07:53;20.50;99.90
25450;DHT22;13371;52.080;5.624;2023-07-31T12:10:31;20.80;99.90
25450;DHT22;13371;52.080;5.624;2023-07-31T12:15:45;21.10;99.90
25450;DHT22;13371;52.080;5.624;2023-07-31T12:18:16;21.00;99.90
25450;DHT22;13371;52.080;5.624;2023-07-31T12:20:46;20.80;99.90
25450;DHT22;13371;52.080;5.624;2023-07-31T12:23:21;20.80;99.90
25450;DHT22;13371;52.080;5.624;2023-07-31T12:26:14;20.70;99.90
25450;DHT22;13371;52.080;5.624;2023-07-31T12:28:45;20.80;99.90
25450;DHT22;13371;52.080;5.624;2023-07-31T12:31:12;20.90;99.90
25450;DHT22;13371;52.080;5.624;2023-07-31T12:33:40;21.10;99.90
25450;DHT22;13371;52.080;5.624;2023-07-31T12:36:13;20.90;99.90
25450;DHT22;13371;52.080;5.624;2023-07-31T12:38:39;20.80;99.90
25450;DHT22;13371;52.080;5.624;2023-07-31T12:41:05;20.80;99.90
25450;DHT22;13371;52.080;5.624;2023-07-31T12:43:33;20.40;99.90
25450;DHT22;13371;52.080;5.624;2023-07-31T12:45:59;20.60;99.90
25450;DHT22;13371;52.080;5.624;2023-07-31T12:48:25;20.70;99.90
25450;DHT22;13371;52.080;5.624;2023-07-31T12:50:51;20.80;99.90
25450;DHT22;13371;52.080;5.624;2023-07-31T12:53:16;20.80;99.90
25450;DHT22;13371;52.080;5.624;2023-07-31T12:55:42;20.60;99.90
25450;DHT22;13371;52.080;5.624;2023-07-31T12:58:08;20.70;99.90
25450;DHT22;13371;52.080;5.624;2023-07-31T13:00:33;20.70;99.90
25450;DHT22;13371;52.080;5.624;2023-07-31T13:02:59;20.70;99.90
25450;DHT22;13371;52.080;5.624;2023-07-31T13:05:26;20.70;99.90
25450;DHT22;13371;52.080;5.624;2023-07-31T13:07:51;21.00;99.90
25450;DHT22;13371;52.080;5.624;2023-07-31T13:10:17;21.20;99.90
25450;DHT22;13371;52.080;5.624;2023-07-31T13:12:43;21.10;99.90
25450;DHT22;13371;52.080;5.624;2023-07-31T13:15:09;20.90;99.90
25450;DHT22;13371;52.080;5.624;2023-07-31T13:17:35;21.20;99.90
25450;DHT22;13371;52.080;5.624;2023-07-31T13:20:01;21.40;99.90
25450;DHT22;13371;52.080;5.624;2023-07-31T13:22:27;21.40;99.90
25450;DHT22;13371;52.080;5.624;2023-07-31T13:24:52;21.20;99.90
25450;DHT22;13371;52.080;5.624;2023-07-31T13:27:18;21.30;99.90
25450;DHT22;13371;52.080;5.624;2023-07-31T13:29:46;21.20;99.90
25450;DHT22;13371;52.080;5.624;2023-07-31T13:32:11;21.20;99.90
25450;DHT22;13371;52.080;5.624;2023-07-31T13:34:37;21.40;99.90
25450;DHT22;13371;52.080;5.624;2023-07-31T13:37:03;21.60;99.90
25450;DHT22;13371;52.080;5.624;2023-07-31T13:39:31;21.60;99.90
25450;DHT22;13371;52.080;5.624;2023-07-31T13:41:57;21.60;99.90
25450;DHT22;13371;52.080;5.624;2023-07-31T13:44:22;21.30;99.90
25450;DHT22;13371;52.080;5.624;2023-07-31T13:46:48;21.30;99.90
25450;DHT22;13371;52.080;5.624;2023-07-31T13:49:14;21.20;99.90
25450;DHT22;13371;52.080;5.624;2023-07-31T13:51:39;21.20;99.90
25450;DHT22;13371;52.080;5.624;2023-07-31T13:54:05;20.90;99.90
25450;DHT22;13371;52.080;5.624;2023-07-31T13:56:32;21.00;99.90
25450;DHT22;13371;52.080;5.624;2023-07-31T13:58:57;21.10;99.90
25450;DHT22;13371;52.080;5.624;2023-07-31T14:01:23;20.70;99.90
25450;DHT22;13371;52.080;5.624;2023-07-31T14:03:49;20.60;99.90
25450;DHT22;13371;52.080;5.624;2023-07-31T14:06:15;20.60;99.90
25450;DHT22;13371;52.080;5.624;2023-07-31T14:08:40;20.70;99.90
25450;DHT22;13371;52.080;5.624;2023-07-31T14:11:06;20.90;99.90
25450;DHT22;13371;52.080;5.624;2023-07-31T14:13:31;20.80;99.90
25450;DHT22;13371;52.080;5.624;2023-07-31T14:15:57;20.60;99.90
25450;DHT22;13371;52.080;5.624;2023-07-31T14:18:23;20.40;99.90
25450;DHT22;13371;52.080;5.624;2023-07-31T14:20:48;20.50;99.90
25450;DHT22;13371;52.080;5.624;2023-07-31T14:23:14;20.40;99.90
25450;DHT22;13371;52.080;5.624;2023-07-31T14:25:41;20.30;99.90
25450;DHT22;13371;52.080;5.624;2023-07-31T14:28:06;20.40;99.90
25450;DHT22;13371;52.080;5.624;2023-07-31T14:30:32;20.50;99.90
25450;DHT22;13371;52.080;5.624;2023-07-31T14:32:57;20.50;99.90
25450;DHT22;13371;52.080;5.624;2023-07-31T14:35:23;20.50;99.90
25450;DHT22;13371;52.080;5.624;2023-07-31T14:37:49;20.50;99.90
25450;DHT22;13371;52.080;5.624;2023-07-31T14:40:14;20.60;99.90
25450;DHT22;13371;52.080;5.624;2023-07-31T14:42:40;20.70;99.90
25450;DHT22;13371;52.080;5.624;2023-07-31T14:45:06;20.70;99.90
25450;DHT22;13371;52.080;5.624;2023-07-31T14:47:33;20.80;99.90
25450;DHT22;13371;52.080;5.624;2023-07-31T14:49:59;20.80;99.90
25450;DHT22;13371;52.080;5.624;2023-07-31T14:52:25;20.60;99.90
25450;DHT22;13371;52.080;5.624;2023-07-31T14:54:51;20.50;99.90
25450;DHT22;13371;52.080;5.624;2023-07-31T14:57:17;20.30;99.90
25450;DHT22;13371;52.080;5.624;2023-07-31T14:59:43;20.30;99.90
25450;DHT22;13371;52.080;5.624;2023-07-31T15:02:09;20.50;99.90
25450;DHT22;13371;52.080;5.624;2023-07-31T15:04:36;20.50;99.90
25450;DHT22;13371;52.080;5.624;2023-07-31T15:07:02;20.40;99.90
25450;DHT22;13371;52.080;5.624;2023-07-31T15:09:27;20.50;99.90
25450;DHT22;13371;52.080;5.624;2023-07-31T15:11:53;20.40;99.90
25450;DHT22;13371;52.080;5.624;2023-07-31T15:14:19;20.40;99.90
25450;DHT22;13371;52.080;5.624;2023-07-31T15:16:45;20.30;99.90
25450;DHT22;13371;52.080;5.624;2023-07-31T15:19:11;20.20;99.90
25450;DHT22;13371;52.080;5.624;2023-07-31T15:21:37;20.20;99.90
25450;DHT22;13371;52.080;5.624;2023-07-31T15:24:03;20.40;99.90
25450;DHT22;13371;52.080;5.624;2023-07-31T15:26:29;20.20;99.90
25450;DHT22;13371;52.080;5.624;2023-07-31T15:29:03;20.30;99.90
25450;DHT22;13371;52.080;5.624;2023-07-31T15:31:38;20.30;99.90
25450;DHT22;13371;52.080;5.624;2023-07-31T15:34:03;20.40;99.90
25450;DHT22;13371;52.080;5.624;2023-07-31T15:36:29;20.20;99.90
25450;DHT22;13371;52.080;5.624;2023-07-31T15:38:54;20.10;99.90
25450;DHT22;13371;52.080;5.624;2023-07-31T15:41:20;20.30;99.90
25450;DHT22;13371;52.080;5.624;2023-07-31T15:43:45;20.10;99.90
25450;DHT22;13371;52.080;5.624;2023-07-31T15:46:12;20.10;99.90
25450;DHT22;13371;52.080;5.624;2023-07-31T15:48:38;20.00;99.90